createdAt,value
2019-03-12T00:00:23.129Z,101099.70
2019-03-12T00:02:52.709Z,101099.75
2019-03-12T00:05:22.221Z,101095.47
2019-03-12T00:07:51.760Z,101103.58
2019-03-12T00:10:21.221Z,101104.76
2019-03-12T00:12:50.837Z,101113.84
2019-03-12T00:15:20.383Z,101112.35
2019-03-12T00:17:50.008Z,101122.64
2019-03-12T00:20:19.547Z,101128.25
2019-03-12T00:22:48.983Z,101141.02
2019-03-12T00:25:18.526Z,101152.53
2019-03-12T00:27:48.035Z,101149.00
2019-03-12T00:30:18.362Z,101150.30
2019-03-12T00:32:47.817Z,101151.94
2019-03-12T00:35:17.733Z,101148.25
2019-03-12T00:37:47.180Z,101147.62
2019-03-12T00:40:17.645Z,101148.96
2019-03-12T00:42:47.166Z,101143.12
2019-03-12T00:45:16.806Z,101153.34
2019-03-12T00:47:46.346Z,101148.70
2019-03-12T00:50:15.965Z,101150.92
2019-03-12T00:52:45.571Z,101145.98
2019-03-12T00:55:15.876Z,101146.19
2019-03-12T00:57:45.414Z,101158.36
2019-03-12T01:00:17.530Z,101156.90
2019-03-12T01:02:47.108Z,101158.83
2019-03-12T01:05:16.828Z,101149.14
2019-03-12T01:07:46.370Z,101158.55
2019-03-12T01:10:16.905Z,101149.39
2019-03-12T01:12:46.442Z,101149.00
2019-03-12T01:15:16.271Z,101153.47
2019-03-12T01:17:45.790Z,101156.06
2019-03-12T01:20:16.493Z,101158.55
2019-03-12T01:22:45.989Z,101157.22
2019-03-12T01:25:15.948Z,101156.84
2019-03-12T01:27:45.411Z,101160.76
2019-03-12T01:30:17.353Z,101162.44
2019-03-12T01:32:46.913Z,101156.66
2019-03-12T01:35:16.697Z,101151.77
2019-03-12T01:37:46.245Z,101141.38
2019-03-12T01:40:16.403Z,101137.03
2019-03-12T01:42:45.909Z,101137.77
2019-03-12T01:45:16.196Z,101143.64
2019-03-12T01:47:45.417Z,101162.98
2019-03-12T01:50:15.984Z,101176.00
2019-03-12T01:52:45.474Z,101191.89
2019-03-12T01:55:16.703Z,101184.59
2019-03-12T01:57:46.279Z,101194.15
2019-03-12T02:00:18.370Z,101193.01
2019-03-12T02:02:48.044Z,101189.52
2019-03-12T02:05:17.741Z,101184.45
2019-03-12T02:07:47.414Z,101180.95
2019-03-12T02:10:17.121Z,101163.48
2019-03-12T02:12:46.796Z,101153.66
2019-03-12T02:15:17.284Z,101148.51
2019-03-12T02:17:46.913Z,101136.89
2019-03-12T02:20:19.211Z,101144.97
2019-03-12T02:22:48.769Z,101142.89
2019-03-12T02:25:19.472Z,101160.47
2019-03-12T02:27:48.979Z,101168.82
2019-03-12T02:30:20.840Z,101170.66
2019-03-12T02:32:50.401Z,101173.96
2019-03-12T02:35:20.113Z,101173.19
2019-03-12T02:37:49.908Z,101172.02
2019-03-12T02:40:20.233Z,101163.69
2019-03-12T02:42:49.784Z,101161.02
2019-03-12T02:45:19.498Z,101166.47
2019-03-12T02:47:49.053Z,101159.28
2019-03-12T02:50:18.808Z,101157.95
2019-03-12T02:52:48.330Z,101158.38
2019-03-12T02:55:17.825Z,101154.46
2019-03-12T02:57:47.121Z,101151.30
2019-03-12T03:00:20.730Z,101157.86
2019-03-12T03:02:50.651Z,101151.70
2019-03-12T03:05:20.348Z,101151.25
2019-03-12T03:07:51.925Z,101153.97
2019-03-12T03:10:21.825Z,101153.25
2019-03-12T03:12:51.428Z,101157.80
2019-03-12T03:15:24.331Z,101162.06
2019-03-12T03:17:53.932Z,101162.20
2019-03-12T03:20:23.379Z,101165.05
2019-03-12T03:22:52.877Z,101160.61
2019-03-12T03:25:22.426Z,101168.00
2019-03-12T03:27:51.951Z,101168.50
2019-03-12T03:30:23.970Z,101171.00
2019-03-12T03:32:53.666Z,101177.75
2019-03-12T03:35:23.274Z,101177.13
2019-03-12T03:37:54.384Z,101174.88
2019-03-12T03:40:23.890Z,101172.32
2019-03-12T03:42:53.417Z,101158.60
2019-03-12T03:45:23.017Z,101166.38
2019-03-12T03:47:52.508Z,101165.11
2019-03-12T03:50:22.119Z,101154.58
2019-03-12T03:52:51.834Z,101162.41
2019-03-12T03:55:22.551Z,101166.97
2019-03-12T03:57:52.249Z,101171.92
2019-03-12T04:00:23.144Z,101167.98
2019-03-12T04:02:52.750Z,101168.30
2019-03-12T04:05:22.350Z,101159.23
2019-03-12T04:07:51.913Z,101149.45
2019-03-12T04:10:21.428Z,101142.86
2019-03-12T04:12:50.619Z,101141.09
2019-03-12T04:15:20.369Z,101140.70
2019-03-12T04:17:50.066Z,101140.34
2019-03-12T04:20:19.785Z,101143.00
2019-03-12T04:22:49.263Z,101156.39
2019-03-12T04:25:18.790Z,101158.20
2019-03-12T04:27:47.834Z,101162.48
2019-03-12T04:30:18.617Z,101159.05
2019-03-12T04:32:48.125Z,101161.34
2019-03-12T04:35:20.802Z,101161.34
2019-03-12T04:37:50.542Z,101154.58
2019-03-12T04:40:20.241Z,101147.91
2019-03-12T04:42:49.944Z,101149.80
2019-03-12T04:45:19.636Z,101143.13
2019-03-12T04:47:49.134Z,101143.13
2019-03-12T04:50:18.714Z,101140.28
2019-03-12T04:52:48.297Z,101146.40
2019-03-12T04:55:17.975Z,101136.89
2019-03-12T04:57:47.568Z,101132.81
2019-03-12T05:00:18.545Z,101124.30
2019-03-12T05:02:48.014Z,101119.87
2019-03-12T05:05:17.720Z,101118.77
2019-03-12T05:07:47.329Z,101124.68
2019-03-12T05:10:17.415Z,101118.80
2019-03-12T05:12:46.877Z,101122.28
2019-03-12T05:15:18.220Z,101119.41
2019-03-12T05:17:47.666Z,101120.37
2019-03-12T05:20:17.356Z,101118.81
2019-03-12T05:22:46.796Z,101119.69
2019-03-12T05:25:16.365Z,101116.28
2019-03-12T05:27:46.002Z,101114.48
2019-03-12T05:30:17.817Z,101115.45
2019-03-12T05:32:47.290Z,101113.89
2019-03-12T05:35:16.826Z,101117.02
2019-03-12T05:37:46.432Z,101116.54
2019-03-12T05:40:17.109Z,101118.47
2019-03-12T05:42:46.617Z,101119.42
2019-03-12T05:45:17.327Z,101106.80
2019-03-12T05:47:46.943Z,101104.03
2019-03-12T05:50:17.773Z,101097.14
2019-03-12T05:52:49.146Z,101093.55
2019-03-12T05:55:18.821Z,101095.84
2019-03-12T05:57:48.488Z,101091.10
2019-03-12T06:00:18.800Z,101093.27
2019-03-12T06:02:48.389Z,101097.25
2019-03-12T06:05:17.976Z,101108.09
2019-03-12T06:07:47.443Z,101097.88
2019-03-12T06:10:17.259Z,101104.03
2019-03-12T06:12:46.769Z,101097.33
2019-03-12T06:15:16.920Z,101088.41
2019-03-12T06:17:46.381Z,101081.75
2019-03-12T06:20:16.466Z,101079.09
2019-03-12T06:22:45.919Z,101092.17
2019-03-12T06:25:15.505Z,101095.26
2019-03-12T06:27:45.100Z,101092.28
2019-03-12T06:30:16.371Z,101092.28
2019-03-12T06:32:47.610Z,101093.22
2019-03-12T06:35:18.846Z,101098.77
2019-03-12T06:37:50.061Z,101094.06
2019-03-12T06:40:21.281Z,101087.70
2019-03-12T06:42:52.595Z,101081.00
2019-03-12T06:45:23.145Z,101077.36
2019-03-12T06:47:54.437Z,101074.94
2019-03-12T06:50:25.525Z,101070.11
2019-03-12T06:52:56.768Z,101071.16
2019-03-12T06:55:30.670Z,101067.70
2019-03-12T06:58:04.190Z,101061.73
2019-03-12T07:00:35.389Z,101058.78
2019-03-12T07:03:06.641Z,101043.11
2019-03-12T07:05:37.816Z,101041.45
2019-03-12T07:08:09.354Z,101038.30
2019-03-12T07:10:40.437Z,101031.39
2019-03-12T07:13:49.961Z,101032.36
2019-03-12T07:16:21.262Z,101028.50
2019-03-12T07:18:52.198Z,101018.55
2019-03-12T07:21:23.443Z,101019.05
2019-03-12T07:23:54.610Z,101019.27
2019-03-12T07:26:25.910Z,101018.44
2019-03-12T07:28:57.106Z,101013.03
2019-03-12T07:31:28.604Z,101002.30
2019-03-12T07:33:59.903Z,101004.78
2019-03-12T07:36:30.453Z,100996.02
2019-03-12T07:39:01.613Z,101003.06
2019-03-12T07:41:33.051Z,101001.71
2019-03-12T07:44:04.241Z,100991.99
2019-03-12T07:46:35.683Z,100988.33
2019-03-12T07:49:07.143Z,100977.55
2019-03-12T07:51:38.300Z,100981.82
2019-03-12T07:54:08.754Z,100971.64
2019-03-12T07:56:39.157Z,100964.55
2019-03-12T07:59:10.398Z,100953.72
2019-03-12T08:01:41.931Z,100949.43
2019-03-12T08:04:13.370Z,100946.03
2019-03-12T08:06:44.551Z,100952.08
2019-03-12T08:09:15.914Z,100945.25
2019-03-12T08:11:47.130Z,100942.02
2019-03-12T08:14:18.365Z,100939.81
2019-03-12T08:16:49.573Z,100934.65
2019-03-12T08:19:20.748Z,100935.41
2019-03-12T08:21:51.891Z,100932.77
2019-03-12T08:24:23.173Z,100925.73
2019-03-12T08:26:54.390Z,100913.52
2019-03-12T08:29:25.562Z,100917.73
2019-03-12T08:31:56.880Z,100910.08
2019-03-12T08:34:28.147Z,100905.27
2019-03-12T08:36:59.314Z,100894.78
2019-03-12T08:39:29.230Z,100890.88
2019-03-12T08:42:00.526Z,100892.64
2019-03-12T08:44:31.611Z,100881.66
2019-03-12T08:47:02.937Z,100877.41
2019-03-12T08:49:35.012Z,100874.86
2019-03-12T08:52:06.033Z,100861.61
2019-03-12T08:54:37.197Z,100853.21
2019-03-12T08:57:08.794Z,100854.37
2019-03-12T08:59:39.951Z,100832.97
2019-03-12T09:02:11.307Z,100833.55
2019-03-12T09:04:42.477Z,100829.12
2019-03-12T09:07:14.014Z,100826.00
2019-03-12T09:09:45.124Z,100815.82
2019-03-12T09:12:16.478Z,100817.30
2019-03-12T09:14:47.631Z,100812.41
2019-03-12T09:17:18.793Z,100811.94
2019-03-12T09:19:49.972Z,100804.57
2019-03-12T09:22:21.143Z,100803.77
2019-03-12T09:24:52.278Z,100790.88
2019-03-12T09:27:23.613Z,100793.72
2019-03-12T09:29:54.760Z,100788.89
2019-03-12T09:32:25.998Z,100785.34
2019-03-12T09:34:57.130Z,100781.30
2019-03-12T09:37:28.372Z,100763.48
2019-03-12T09:39:59.626Z,100766.48
2019-03-12T09:42:31.016Z,100758.52
2019-03-12T09:45:02.250Z,100761.38
2019-03-12T09:47:33.544Z,100755.23
2019-03-12T09:50:05.242Z,100740.02
2019-03-12T09:52:36.403Z,100744.63
2019-03-12T09:55:08.645Z,100728.60
2019-03-12T09:57:39.767Z,100723.11
2019-03-12T10:00:16.512Z,100712.31
2019-03-12T10:02:49.627Z,100706.27
2019-03-12T10:05:20.824Z,100699.64
2019-03-12T10:07:52.292Z,100700.95
2019-03-12T10:10:23.483Z,100701.02
2019-03-12T10:12:53.896Z,100697.75
2019-03-12T10:18:34.575Z,100691.97
2019-03-12T10:21:03.933Z,100687.72
2019-03-12T10:23:35.298Z,100685.16
2019-03-12T10:26:06.563Z,100675.81
2019-03-12T10:28:40.731Z,100665.47
2019-03-12T10:31:12.055Z,100659.69
2019-03-12T10:33:43.375Z,100659.97
2019-03-12T10:36:14.723Z,100655.59
2019-03-12T10:38:49.059Z,100648.87
2019-03-12T10:41:20.220Z,100640.09
2019-03-12T10:43:49.760Z,100630.63
2019-03-12T10:46:21.003Z,100628.61
2019-03-12T10:48:50.720Z,100619.86
2019-03-12T10:51:20.288Z,100613.61
2019-03-12T10:53:49.799Z,100605.47
2019-03-12T10:56:19.389Z,100603.80
2019-03-12T10:58:48.875Z,100595.54
2019-03-12T11:01:19.057Z,100569.63
2019-03-12T11:03:49.330Z,100583.09
2019-03-12T11:06:19.602Z,100578.06
2019-03-12T11:08:50.037Z,100573.14
2019-03-12T11:11:20.334Z,100566.48
2019-03-12T11:13:50.919Z,100561.12
2019-03-12T11:19:51.674Z,100557.09
2019-03-12T11:22:42.773Z,100542.28
2019-03-12T11:25:25.921Z,100534.77
2019-03-12T11:27:45.169Z,100529.33
2019-03-12T11:30:17.403Z,100516.85
2019-03-12T11:32:47.009Z,100501.47
2019-03-12T11:35:16.641Z,100510.95
2019-03-12T11:37:46.154Z,100498.52
2019-03-12T11:40:18.493Z,100498.47
2019-03-12T11:42:48.151Z,100489.09
2019-03-12T11:45:19.862Z,100486.81
2019-03-12T11:47:49.352Z,100483.22
2019-03-12T11:50:20.970Z,100478.05
2019-03-12T11:52:55.707Z,100471.31
2019-03-12T11:55:22.166Z,100454.31
2019-03-12T11:57:51.629Z,100444.48
2019-03-12T12:00:26.220Z,100442.05
2019-03-12T12:03:00.288Z,100440.00
2019-03-12T12:05:27.188Z,100429.79
2019-03-12T12:07:56.634Z,100433.16
2019-03-12T12:10:26.295Z,100424.02
2019-03-12T12:12:55.864Z,100434.33
2019-03-12T12:15:25.362Z,100421.02
2019-03-12T12:17:54.758Z,100418.24
2019-03-12T12:20:30.151Z,100402.61
2019-03-12T12:22:55.671Z,100396.99
2019-03-12T12:25:25.222Z,100385.25
2019-03-12T12:27:54.773Z,100377.23
2019-03-12T12:30:24.971Z,100372.13
2019-03-12T12:32:54.512Z,100370.99
2019-03-12T12:35:24.077Z,100364.53
2019-03-12T12:37:53.621Z,100346.39
2019-03-12T12:40:22.885Z,100333.45
2019-03-12T12:42:52.456Z,100322.37
2019-03-12T12:45:24.843Z,100309.95
2019-03-12T12:47:54.349Z,100297.52
2019-03-12T12:50:24.165Z,100295.99
2019-03-12T12:52:53.788Z,100288.50
2019-03-12T12:55:23.377Z,100282.30
2019-03-12T12:57:52.921Z,100266.36
2019-03-12T13:00:23.916Z,100259.45
2019-03-12T13:02:53.476Z,100261.54
2019-03-12T13:05:23.168Z,100259.78
2019-03-12T13:07:52.784Z,100255.64
2019-03-12T13:10:25.368Z,100242.06
2019-03-12T13:12:54.985Z,100242.14
2019-03-12T13:15:24.793Z,100239.27
2019-03-12T13:17:54.404Z,100236.42
2019-03-12T13:20:24.015Z,100229.41
2019-03-12T13:22:53.647Z,100228.55
2019-03-12T13:25:23.244Z,100222.98
2019-03-12T13:27:52.883Z,100208.03
2019-03-12T13:30:23.685Z,100208.77
2019-03-12T13:32:53.199Z,100200.36
2019-03-12T13:35:22.924Z,100194.30
2019-03-12T13:37:52.419Z,100188.57
2019-03-12T13:40:24.459Z,100191.88
2019-03-12T13:42:54.316Z,100180.83
2019-03-12T13:45:26.139Z,100168.30
2019-03-12T13:47:56.065Z,100179.05
2019-03-12T13:50:25.976Z,100161.81
2019-03-12T13:52:57.767Z,100151.59
2019-03-12T13:55:27.694Z,100145.69
2019-03-12T13:57:57.477Z,100140.27
2019-03-12T14:00:28.719Z,100126.19
2019-03-12T14:02:57.893Z,100131.83
2019-03-12T14:05:27.424Z,100121.58
2019-03-12T14:07:57.059Z,100117.68
2019-03-12T14:10:27.359Z,100114.70
2019-03-12T14:12:57.592Z,100111.40
2019-03-12T14:15:30.554Z,100108.00
2019-03-12T14:18:00.885Z,100096.93
2019-03-12T14:20:33.469Z,100094.87
2019-03-12T14:23:02.948Z,100083.75
2019-03-12T14:25:32.692Z,100076.83
2019-03-12T14:28:02.303Z,100066.56
2019-03-12T14:30:31.913Z,100052.43
2019-03-12T14:33:01.627Z,100040.13
2019-03-12T14:35:31.212Z,100030.44
2019-03-12T14:38:01.048Z,100034.67
2019-03-12T14:40:30.649Z,100026.93
2019-03-12T14:43:00.263Z,100019.59
2019-03-12T14:45:30.466Z,100010.61
2019-03-12T14:48:00.157Z,100013.11
2019-03-12T14:50:34.197Z,100000.05
2019-03-12T14:53:21.012Z,99990.62
2019-03-12T14:55:39.605Z,99982.33
2019-03-12T14:58:09.637Z,99980.88
2019-03-12T15:00:40.057Z,99967.53
2019-03-12T15:03:09.739Z,99958.34
2019-03-12T15:05:39.348Z,99955.25
2019-03-12T15:08:12.068Z,99939.87
2019-03-12T15:10:41.771Z,99929.69
2019-03-12T15:13:11.342Z,99916.89
2019-03-12T15:15:40.908Z,99905.35
2019-03-12T15:18:10.518Z,99905.35
2019-03-12T15:20:40.233Z,99880.05
2019-03-12T15:23:09.871Z,99865.09
2019-03-12T15:25:39.597Z,99859.73
2019-03-12T15:28:09.154Z,99836.62
2019-03-12T15:30:38.662Z,99832.40
2019-03-12T15:33:08.344Z,99828.23
2019-03-12T15:35:37.817Z,99818.44
2019-03-12T15:38:07.347Z,99821.02
2019-03-12T15:40:36.886Z,99811.77
2019-03-12T15:43:06.279Z,99800.77
2019-03-12T15:45:35.624Z,99805.20
2019-03-12T15:48:05.059Z,99798.78
2019-03-12T15:53:31.343Z,99777.71
2019-03-12T15:56:00.952Z,99766.09
2019-03-12T15:58:30.478Z,99760.03
2019-03-12T16:01:02.576Z,99749.64
2019-03-12T16:03:31.519Z,99758.47
2019-03-12T16:06:21.948Z,99745.73
2019-03-12T16:08:51.483Z,99747.78
2019-03-12T16:14:36.402Z,99711.48
2019-03-12T16:17:05.919Z,99705.53
2019-03-12T16:19:35.436Z,99702.92
2019-03-12T16:22:04.978Z,99700.00
2019-03-12T16:24:34.418Z,99686.50
2019-03-12T16:27:04.074Z,99686.61
2019-03-12T16:29:33.724Z,99672.39
2019-03-12T16:32:03.189Z,99667.72
2019-03-12T16:34:32.631Z,99660.27
2019-03-12T16:37:02.115Z,99655.63
2019-03-12T16:39:31.717Z,99643.58
2019-03-12T16:42:01.312Z,99639.36
2019-03-12T16:44:30.921Z,99639.36
2019-03-12T16:47:00.627Z,99633.69
2019-03-12T16:49:30.189Z,99625.01
2019-03-12T16:51:59.673Z,99624.31
2019-03-12T16:54:29.114Z,99615.16
2019-03-12T16:56:58.587Z,99601.42
2019-03-12T16:59:28.018Z,99601.42
2019-03-12T17:01:57.264Z,99584.30
2019-03-12T17:04:26.730Z,99582.48
2019-03-12T17:06:56.234Z,99575.45
2019-03-12T17:09:27.012Z,99569.16
2019-03-12T17:11:56.495Z,99560.27
2019-03-12T17:14:38.060Z,99547.52
2019-03-12T17:16:57.102Z,99541.40
2019-03-12T17:19:26.649Z,99529.25
2019-03-12T17:22:36.154Z,99523.12
2019-03-12T17:25:09.049Z,99521.87
2019-03-12T17:27:38.640Z,99509.70
2019-03-12T17:30:28.949Z,99503.77
2019-03-12T17:32:58.431Z,99498.38
2019-03-12T17:35:30.842Z,99488.27
2019-03-12T17:38:00.379Z,99481.81
2019-03-12T17:40:30.045Z,99467.92
2019-03-12T17:42:59.462Z,99473.07
2019-03-12T17:45:28.838Z,99475.54
2019-03-12T17:47:58.399Z,99485.31
2019-03-12T17:50:27.978Z,99481.09
2019-03-12T17:52:59.172Z,99483.70
2019-03-12T17:55:29.000Z,99484.80
2019-03-12T17:57:58.693Z,99476.16
2019-03-12T18:00:47.414Z,99462.78
2019-03-12T18:03:16.946Z,99459.79
2019-03-12T18:05:46.470Z,99442.84
2019-03-12T18:08:16.060Z,99424.93
2019-03-12T18:10:45.249Z,99420.72
2019-03-12T18:13:14.867Z,99412.27
2019-03-12T18:15:44.005Z,99418.16
2019-03-12T18:18:13.624Z,99413.91
2019-03-12T18:20:44.162Z,99411.06
2019-03-12T18:23:13.864Z,99408.17
2019-03-12T18:25:45.289Z,99400.85
2019-03-12T18:28:15.203Z,99399.11
2019-03-12T18:30:45.147Z,99384.16
2019-03-12T18:33:15.154Z,99374.39
2019-03-12T18:35:44.825Z,99366.27
2019-03-12T18:38:14.368Z,99359.36
2019-03-12T18:40:44.068Z,99348.16
2019-03-12T18:43:15.028Z,99340.73
2019-03-12T18:45:44.627Z,99346.09
2019-03-12T18:48:14.335Z,99337.97
2019-03-12T18:50:43.943Z,99329.72
2019-03-12T18:53:14.454Z,99319.32
2019-03-12T18:55:45.702Z,99316.83
2019-03-12T18:58:15.281Z,99305.09
2019-03-12T19:00:48.886Z,99293.44
2019-03-12T19:03:18.644Z,99290.58
2019-03-12T19:05:48.206Z,99290.36
2019-03-12T19:08:17.785Z,99284.92
2019-03-12T19:10:47.337Z,99275.33
2019-03-12T19:13:16.859Z,99277.19
2019-03-12T19:15:46.335Z,99265.75
2019-03-12T19:18:15.871Z,99253.19
2019-03-12T19:20:45.419Z,99253.19
2019-03-12T19:23:17.238Z,99248.94
2019-03-12T19:25:48.661Z,99238.84
2019-03-12T19:28:18.108Z,99239.73
2019-03-12T19:30:48.007Z,99224.78
2019-03-12T19:33:19.168Z,99220.86
2019-03-12T19:35:48.630Z,99225.39
2019-03-12T19:38:18.370Z,99213.05
2019-03-12T19:40:50.798Z,99208.19
2019-03-12T19:43:20.406Z,99201.70
2019-03-12T19:45:50.034Z,99181.27
2019-03-12T19:48:19.767Z,99169.27
2019-03-12T19:50:49.484Z,99153.50
2019-03-12T19:53:18.977Z,99159.45
2019-03-12T19:55:51.615Z,99146.36
2019-03-12T19:58:21.334Z,99132.66
2019-03-12T20:00:51.148Z,99129.38
2019-03-12T20:03:20.795Z,99113.31
2019-03-12T20:05:52.165Z,99111.83
2019-03-12T20:08:21.778Z,99102.00
2019-03-12T20:10:55.251Z,99101.25
2019-03-12T20:13:28.059Z,99104.23
2019-03-12T20:16:00.730Z,99110.50
2019-03-12T20:18:51.089Z,99093.83
2019-03-12T20:21:22.946Z,99092.23
2019-03-12T20:24:32.490Z,99094.48
2019-03-12T20:27:08.714Z,99079.59
2019-03-12T20:29:41.392Z,99048.48
2019-03-12T20:32:14.635Z,99056.78
2019-03-12T20:34:47.204Z,99045.05
2019-03-12T20:37:19.943Z,99036.19
2019-03-12T20:39:52.526Z,99034.89
2019-03-12T20:42:25.108Z,99033.85
2019-03-12T20:44:57.835Z,99035.34
2019-03-12T20:47:30.460Z,99033.85
2019-03-12T20:50:02.839Z,99025.09
2019-03-12T20:52:34.954Z,99025.09
2019-03-12T20:55:07.616Z,99027.63
2019-03-12T20:57:43.021Z,99016.28
2019-03-12T21:00:16.250Z,99013.25
2019-03-12T21:02:48.159Z,99004.39
2019-03-12T21:05:20.761Z,99003.58
2019-03-12T21:07:53.323Z,98994.49
2019-03-12T21:10:26.089Z,98991.06
2019-03-12T21:13:01.627Z,98988.91
2019-03-12T21:15:34.587Z,98984.66
2019-03-12T21:18:10.300Z,98980.80
2019-03-12T21:20:42.902Z,98969.84
2019-03-12T21:23:14.112Z,98970.96
2019-03-12T21:25:45.941Z,98969.84
2019-03-12T21:28:18.623Z,98966.72
2019-03-12T21:30:47.898Z,98969.27
2019-03-12T21:33:17.412Z,98964.27
2019-03-12T21:35:46.628Z,98970.14
2019-03-12T21:38:16.224Z,98959.58
2019-03-12T21:40:45.768Z,98950.63
2019-03-12T21:43:15.469Z,98950.93
2019-03-12T21:45:45.106Z,98951.55
2019-03-12T21:48:15.206Z,98945.14
2019-03-12T21:50:44.759Z,98936.17
2019-03-12T21:53:35.115Z,98932.59
2019-03-12T21:56:04.586Z,98933.94
2019-03-12T21:58:34.116Z,98935.74
2019-03-12T22:01:04.129Z,98937.30
2019-03-12T22:03:34.609Z,98941.77
2019-03-12T22:06:04.257Z,98943.59
2019-03-12T22:08:33.935Z,98945.84
2019-03-12T22:11:03.308Z,98933.41
2019-03-12T22:13:32.665Z,98929.49
2019-03-12T22:16:02.000Z,98926.05
2019-03-12T22:18:31.438Z,98909.41
2019-03-12T22:21:00.716Z,98910.66
2019-03-12T22:26:39.863Z,98905.45
2019-03-12T22:29:09.411Z,98902.33
2019-03-12T22:31:39.989Z,98902.05
2019-03-12T22:34:09.493Z,98893.31
2019-03-12T22:36:38.969Z,98903.23
2019-03-12T22:39:09.167Z,98902.92
2019-03-12T22:41:38.620Z,98910.28
2019-03-12T22:47:42.782Z,98906.20
2019-03-12T22:50:14.549Z,98913.72
2019-03-12T22:52:44.148Z,98913.95
2019-03-12T22:55:14.553Z,98907.82
2019-03-12T22:57:43.846Z,98900.96
2019-03-12T23:00:17.805Z,98902.59
2019-03-12T23:02:47.435Z,98907.89
2019-03-12T23:05:17.134Z,98909.61
2019-03-12T23:07:46.723Z,98911.44
2019-03-12T23:10:17.071Z,98912.06
2019-03-12T23:12:46.627Z,98921.81
2019-03-12T23:15:17.493Z,98921.73
2019-03-12T23:17:46.987Z,98927.83
2019-03-12T23:20:19.190Z,98937.59
2019-03-12T23:22:52.010Z,98942.67
2019-03-12T23:25:20.058Z,98944.42
2019-03-12T23:27:49.771Z,98938.77
2019-03-12T23:30:20.779Z,98941.23
2019-03-12T23:32:50.504Z,98944.30
2019-03-12T23:35:20.142Z,98964.89
2019-03-12T23:37:49.826Z,98994.61
2019-03-12T23:40:19.835Z,99009.87
2019-03-12T23:42:49.561Z,99019.77
2019-03-12T23:45:19.169Z,99029.47
2019-03-12T23:47:50.531Z,99047.87
2019-03-12T23:50:20.363Z,99060.94
2019-03-12T23:52:50.012Z,99065.12
2019-03-12T23:55:19.684Z,99089.06
2019-03-12T23:57:49.159Z,99107.73
